Time,TemperatureF,DewpointF,PressureIn,WindDirection,WindDirectionDegrees,WindSpeedMPH,WindSpeedGustMPH,Humidity,HourlyPrecipIn,Conditions,Clouds,dailyrainin,SoftwareType,DateUTC
2013-01-23 00:00:00,26.1,23.3,30.08,SW,217,0.0,0.0,89,0.00,,---,0.00,VWS V14.01,2013-01-23 08:00:00,
2013-01-23 00:03:00,25.9,22.8,30.09,WNW,286,0.0,0.0,88,0.00,,---,0.00,VWS V14.01,2013-01-23 08:03:00,
2013-01-23 00:08:00,25.9,22.8,30.09,WNW,286,0.0,0.0,88,0.00,,---,0.00,VWS V14.01,2013-01-23 08:08:00,
2013-01-23 00:13:00,25.8,22.7,30.08,WNW,286,0.0,0.0,88,0.00,,---,0.00,VWS V14.01,2013-01-23 08:13:00,
2013-01-23 00:15:00,25.8,23.0,30.08,WSW,252,0.0,0.0,89,0.00,,---,0.00,VWS V14.01,2013-01-23 08:15:00,
2013-01-23 00:18:00,25.7,22.6,30.08,WNW,286,0.0,0.0,88,0.00,,---,0.00,VWS V14.01,2013-01-23 08:18:00,
2013-01-23 00:23:00,25.7,22.9,30.08,WNW,286,0.0,0.0,89,0.00,,---,0.00,VWS V14.01,2013-01-23 08:23:00,
2013-01-23 00:28:00,25.7,22.9,30.08,WNW,286,0.0,0.0,89,0.00,,---,0.00,VWS V14.01,2013-01-23 08:28:00,
2013-01-23 00:30:00,26.4,23.9,30.08,WSW,252,0.0,0.0,90,0.00,,---,0.00,VWS V14.01,2013-01-23 08:30:00,
2013-01-23 00:33:00,25.9,23.1,30.08,WNW,286,0.0,0.0,89,0.00,,---,0.00,VWS V14.01,2013-01-23 08:33:00,
2013-01-23 00:38:00,26.1,23.3,30.08,WNW,286,0.0,0.0,89,0.00,,---,0.00,VWS V14.01,2013-01-23 08:38:00,
2013-01-23 00:43:00,26.3,23.5,30.08,SW,217,0.0,0.0,89,0.00,,---,0.00,VWS V14.01,2013-01-23 08:43:00,
2013-01-23 00:45:00,27.1,24.3,30.08,WSW,253,0.0,0.0,89,0.00,,---,0.00,VWS V14.01,2013-01-23 08:45:00,
2013-01-23 00:48:00,26.2,23.4,30.08,SW,217,0.0,0.0,89,0.00,,---,0.00,VWS V14.01,2013-01-23 08:48:00,
2013-01-23 00:53:00,26.2,23.4,30.08,SW,217,0.0,0.0,89,0.00,,---,0.00,VWS V14.01,2013-01-23 08:53:00,
2013-01-23 00:58:00,26.1,23.3,30.09,SW,217,0.0,0.0,89,0.00,,---,0.00,VWS V14.01,2013-01-23 08:58:00,
2013-01-23 01:00:00,27.5,24.1,30.08,NNE,16,0.0,0.0,87,0.00,,---,0.00,VWS V14.01,2013-01-23 09:00:00,
2013-01-23 01:03:00,26.0,23.2,30.08,SW,217,0.0,0.0,89,0.00,,---,0.00,VWS V14.01,2013-01-23 09:03:00,
2013-01-23 01:08:00,25.9,23.1,30.09,SW,217,0.0,0.0,89,0.00,,---,0.00,VWS V14.01,2013-01-23 09:08:00,
2013-01-23 01:13:00,25.8,23.0,30.08,SW,217,0.0,0.0,89,0.00,,---,0.00,VWS V14.01,2013-01-23 09:13:00,
2013-01-23 01:15:00,27.9,23.1,30.07,NNE,28,0.0,1.0,82,0.00,,---,0.00,VWS V14.01,2013-01-23 09:15:00,
2013-01-23 01:18:00,25.9,23.4,30.08,WSW,252,0.0,0.0,90,0.00,,---,0.00,VWS V14.01,2013-01-23 09:18:00,
2013-01-23 01:23:00,26.2,23.7,30.08,WSW,252,0.0,0.0,90,0.00,,---,0.00,VWS V14.01,2013-01-23 09:23:00,
2013-01-23 01:28:00,26.3,23.8,30.08,WSW,252,0.0,0.0,90,0.00,,---,0.00,VWS V14.01,2013-01-23 09:28:00,
2013-01-23 01:30:00,31.2,22.2,30.07,NNE,30,0.0,0.0,69,0.00,,---,0.00,VWS V14.01,2013-01-23 09:30:00,
2013-01-23 01:33:00,26.5,24.0,30.08,WSW,252,0.0,0.0,90,0.00,,---,0.00,VWS V14.01,2013-01-23 09:33:00,
2013-01-23 01:38:00,26.8,24.3,30.08,WSW,253,0.0,0.0,90,0.00,,---,0.00,VWS V14.01,2013-01-23 09:38:00,
2013-01-23 01:43:00,27.1,24.3,30.08,WSW,253,0.0,0.0,89,0.00,,---,0.00,VWS V14.01,2013-01-23 09:43:00,
2013-01-23 01:45:00,28.0,21.7,30.07,NNE,30,0.0,0.0,77,0.00,,---,0.00,VWS V14.01,2013-01-23 09:45:00,
2013-01-23 01:48:00,27.2,24.4,30.08,WSW,254,0.0,0.0,89,0.00,,---,0.00,VWS V14.01,2013-01-23 09:48:00,
2013-01-23 01:53:00,27.5,24.1,30.08,North,355,0.0,0.0,87,0.00,,---,0.00,VWS V14.01,2013-01-23 09:53:00,
2013-01-23 01:58:00,27.6,24.2,30.08,North,355,0.0,0.0,87,0.00,,---,0.00,VWS V14.01,2013-01-23 09:58:00,
2013-01-23 02:00:00,26.3,22.1,30.06,NNE,24,0.0,0.0,84,0.00,,---,0.00,VWS V14.01,2013-01-23 10:00:00,
2013-01-23 02:03:00,27.4,23.8,30.08,NNE,15,0.0,0.0,86,0.00,,---,0.00,VWS V14.01,2013-01-23 10:03:00,
2013-01-23 02:08:00,27.1,23.5,30.07,NNE,16,0.0,1.0,86,0.00,,---,0.00,VWS V14.01,2013-01-23 10:08:00,
2013-01-23 02:13:00,27.4,23.8,30.07,NNE,28,0.0,1.0,86,0.00,,---,0.00,VWS V14.01,2013-01-23 10:13:00,
2013-01-23 02:15:00,27.6,23.1,30.05,NNE,18,0.0,0.0,83,0.00,,---,0.00,VWS V14.01,2013-01-23 10:15:00,
2013-01-23 02:18:00,28.9,22.6,30.07,NNE,28,0.0,0.0,77,0.00,,---,0.00,VWS V14.01,2013-01-23 10:18:00,
2013-01-23 02:23:00,31.1,22.5,30.07,NNE,30,0.0,0.0,70,0.00,,---,0.00,VWS V14.01,2013-01-23 10:23:00,
2013-01-23 02:28:00,31.8,22.5,30.07,NNE,30,0.0,0.0,68,0.00,,---,0.00,VWS V14.01,2013-01-23 10:28:00,
2013-01-23 02:30:00,28.8,23.4,30.05,NNE,18,0.0,0.0,80,0.00,,---,0.00,VWS V14.01,2013-01-23 10:30:00,
2013-01-23 02:33:00,30.6,22.3,30.07,NNE,29,0.0,0.0,71,0.00,,---,0.00,VWS V14.01,2013-01-23 10:33:00,
2013-01-23 02:38:00,29.6,22.0,30.07,NNE,29,0.0,0.0,73,0.00,,---,0.00,VWS V14.01,2013-01-23 10:38:00,
2013-01-23 02:43:00,28.5,21.6,30.07,NNE,29,0.0,0.0,75,0.00,,---,0.00,VWS V14.01,2013-01-23 10:43:00,
2013-01-23 02:45:00,29.2,23.8,30.05,NNE,18,0.0,0.0,80,0.00,,---,0.00,VWS V14.01,2013-01-23 10:45:00,
2013-01-23 02:48:00,27.5,21.9,30.07,NNE,26,0.0,0.0,79,0.00,,---,0.00,VWS V14.01,2013-01-23 10:48:00,
2013-01-23 02:53:00,26.6,21.6,30.07,NNE,25,0.0,0.0,81,0.00,,---,0.00,VWS V14.01,2013-01-23 10:53:00,
2013-01-23 02:58:00,26.3,21.9,30.06,NNE,25,0.0,0.0,83,0.00,,---,0.00,VWS V14.01,2013-01-23 10:58:00,
2013-01-23 03:00:00,28.4,23.0,30.05,North,350,0.0,3.0,80,0.00,,---,0.00,VWS V14.01,2013-01-23 11:00:00,
2013-01-23 03:03:00,26.5,22.6,30.06,NNE,24,0.0,0.0,85,0.00,,---,0.00,VWS V14.01,2013-01-23 11:03:00,
2013-01-23 03:08:00,26.9,22.7,30.06,NNE,18,0.0,0.0,84,0.00,,---,0.00,VWS V14.01,2013-01-23 11:08:00,
2013-01-23 03:13:00,27.4,22.9,30.06,NNE,18,0.0,0.0,83,0.00,,---,0.00,VWS V14.01,2013-01-23 11:13:00,
2013-01-23 03:15:00,27.8,23.6,30.04,North,360,4.0,4.0,84,0.00,,---,0.00,VWS V14.01,2013-01-23 11:15:00,
2013-01-23 03:18:00,27.8,23.3,30.06,NNE,18,0.0,0.0,83,0.00,,---,0.00,VWS V14.01,2013-01-23 11:18:00,
2013-01-23 03:23:00,28.3,23.5,30.06,NNE,18,0.0,0.0,82,0.00,,---,0.00,VWS V14.01,2013-01-23 11:23:00,
2013-01-23 03:28:00,28.6,23.2,30.05,NNE,18,0.0,0.0,80,0.00,,---,0.00,VWS V14.01,2013-01-23 11:28:00,
2013-01-23 03:30:00,29.5,22.9,30.04,North,360,0.0,4.0,76,0.00,,---,0.00,VWS V14.01,2013-01-23 11:30:00,
2013-01-23 03:33:00,28.8,23.7,30.05,NNE,18,0.0,0.0,81,0.00,,---,0.00,VWS V14.01,2013-01-23 11:33:00,
2013-01-23 03:38:00,28.9,23.5,30.05,NNE,18,0.0,0.0,80,0.00,,---,0.00,VWS V14.01,2013-01-23 11:38:00,
2013-01-23 03:43:00,29.0,23.6,30.05,NNE,18,0.0,0.0,80,0.00,,---,0.00,VWS V14.01,2013-01-23 11:43:00,
2013-01-23 03:45:00,30.6,24.3,30.03,North,360,0.0,3.0,77,0.00,,---,0.00,VWS V14.01,2013-01-23 11:45:00,
2013-01-23 03:48:00,29.2,23.8,30.05,NNE,18,0.0,0.0,80,0.00,,---,0.00,VWS V14.01,2013-01-23 11:48:00,
2013-01-23 03:53:00,29.2,23.8,30.05,North,350,0.0,3.0,80,0.00,,---,0.00,VWS V14.01,2013-01-23 11:53:00,
2013-01-23 03:58:00,28.5,23.1,30.05,North,350,0.0,3.0,80,0.00,,---,0.00,VWS V14.01,2013-01-23 11:58:00,
2013-01-23 04:00:00,30.7,24.7,30.03,North,360,0.0,0.0,78,0.00,,---,0.00,VWS V14.01,2013-01-23 12:00:00,
2013-01-23 04:03:00,28.1,23.3,30.04,North,350,0.0,0.0,82,0.00,,---,0.00,VWS V14.01,2013-01-23 12:03:00,
2013-01-23 04:08:00,27.9,23.1,30.04,North,350,0.0,0.0,82,0.00,,---,0.00,VWS V14.01,2013-01-23 12:08:00,
2013-01-23 04:13:00,27.9,23.4,30.04,North,350,0.0,0.0,83,0.00,,---,0.00,VWS V14.01,2013-01-23 12:13:00,
2013-01-23 04:15:00,30.3,24.3,30.02,North,360,0.0,0.0,78,0.00,,---,0.00,VWS V14.01,2013-01-23 12:15:00,
2013-01-23 04:18:00,27.7,23.8,30.04,North,360,0.0,4.0,85,0.00,,---,0.00,VWS V14.01,2013-01-23 12:18:00,
2013-01-23 04:23:00,28.0,23.5,30.04,North,360,0.0,4.0,83,0.00,,---,0.00,VWS V14.01,2013-01-23 12:23:00,
2013-01-23 04:28:00,28.8,22.8,30.04,North,360,0.0,4.0,78,0.00,,---,0.00,VWS V14.01,2013-01-23 12:28:00,
2013-01-23 04:30:00,29.9,24.5,30.02,North,360,0.0,4.0,80,0.00,,---,0.00,VWS V14.01,2013-01-23 12:30:00,
2013-01-23 04:33:00,30.2,23.2,30.04,North,360,0.0,3.0,75,0.00,,---,0.00,VWS V14.01,2013-01-23 12:33:00,
2013-01-23 04:38:00,30.8,24.5,30.03,North,360,0.0,3.0,77,0.00,,---,0.00,VWS V14.01,2013-01-23 12:38:00,
2013-01-23 04:43:00,30.7,24.4,30.03,North,360,0.0,3.0,77,0.00,,---,0.00,VWS V14.01,2013-01-23 12:43:00,
2013-01-23 04:45:00,31.7,21.7,30.02,North,5,0.0,0.0,66,0.00,,---,0.00,VWS V14.01,2013-01-23 12:45:00,
2013-01-23 04:48:00,30.5,24.2,30.03,North,360,0.0,0.0,77,0.00,,---,0.00,VWS V14.01,2013-01-23 12:48:00,
2013-01-23 04:53:00,30.3,23.7,30.02,North,360,0.0,0.0,76,0.00,,---,0.00,VWS V14.01,2013-01-23 12:53:00,
2013-01-23 04:58:00,30.7,24.0,30.03,North,360,0.0,0.0,76,0.00,,---,0.00,VWS V14.01,2013-01-23 12:58:00,
2013-01-23 05:00:00,30.9,25.2,30.01,WNW,300,1.0,5.0,79,0.00,,---,0.00,VWS V14.01,2013-01-23 13:00:00,
2013-01-23 05:03:00,30.6,24.6,30.03,North,360,0.0,0.0,78,0.00,,---,0.00,VWS V14.01,2013-01-23 13:03:00,
2013-01-23 05:08:00,30.3,23.7,30.02,North,360,0.0,0.0,76,0.00,,---,0.00,VWS V14.01,2013-01-23 13:08:00,
2013-01-23 05:13:00,30.2,24.2,30.02,North,360,0.0,0.0,78,0.00,,---,0.00,VWS V14.01,2013-01-23 13:13:00,
2013-01-23 05:15:00,31.5,25.1,30.00,WNW,300,0.0,4.0,77,0.00,,---,0.00,VWS V14.01,2013-01-23 13:15:00,
2013-01-23 05:18:00,30.2,24.5,30.02,North,360,0.0,0.0,79,0.00,,---,0.00,VWS V14.01,2013-01-23 13:18:00,
2013-01-23 05:23:00,30.0,24.6,30.02,North,360,3.0,4.0,80,0.00,,---,0.00,VWS V14.01,2013-01-23 13:23:00,
2013-01-23 05:28:00,29.8,25.0,30.02,North,5,0.0,4.0,82,0.00,,---,0.00,VWS V14.01,2013-01-23 13:28:00,
2013-01-23 05:30:00,32.4,25.0,30.00,WNW,301,0.0,0.0,74,0.00,,---,0.00,VWS V14.01,2013-01-23 13:30:00,
2013-01-23 05:33:00,30.5,22.9,30.02,North,5,0.0,0.0,73,0.00,,---,0.00,VWS V14.01,2013-01-23 13:33:00,
2013-01-23 05:38:00,30.9,24.9,30.02,North,360,0.0,0.0,78,0.00,,---,0.00,VWS V14.01,2013-01-23 13:38:00,
2013-01-23 05:43:00,31.5,23.2,30.02,North,5,0.0,0.0,71,0.00,,---,0.00,VWS V14.01,2013-01-23 13:43:00,
2013-01-23 05:45:00,31.5,25.4,30.00,SSE,152,0.0,4.0,78,0.00,,---,0.00,VWS V14.01,2013-01-23 13:45:00,
2013-01-23 05:48:00,32.0,21.6,30.03,North,5,0.0,0.0,65,0.00,,---,0.00,VWS V14.01,2013-01-23 13:48:00,
2013-01-23 05:53:00,32.2,25.5,30.02,NNW,342,0.0,0.0,76,0.00,,---,0.00,VWS V14.01,2013-01-23 13:53:00,
2013-01-23 05:58:00,31.2,25.5,30.01,WNW,299,3.0,5.0,79,0.00,,---,0.00,VWS V14.01,2013-01-23 13:58:00,
2013-01-23 06:00:00,30.7,25.0,30.00,SSE,153,0.0,0.0,79,0.00,,---,0.00,VWS V14.01,2013-01-23 14:00:00,
2013-01-23 06:02:00,30.7,24.0,30.01,WNW,300,4.0,4.0,76,0.00,,---,0.00,VWS V14.01,2013-01-23 14:02:00,
2013-01-23 06:07:00,31.2,24.8,30.00,WNW,301,0.0,4.0,77,0.00,,---,0.00,VWS V14.01,2013-01-23 14:07:00,
2013-01-23 06:12:00,31.4,25.4,30.00,WNW,301,0.0,4.0,78,0.00,,---,0.00,VWS V14.01,2013-01-23 14:12:00,
2013-01-23 06:15:00,31.1,25.1,29.99,SSE,153,0.0,0.0,78,0.00,,---,0.00,VWS V14.01,2013-01-23 14:15:00,
2013-01-23 06:17:00,31.5,25.1,30.01,WNW,301,0.0,0.0,77,0.00,,---,0.00,VWS V14.01,2013-01-23 14:17:00,
2013-01-23 06:22:00,31.9,25.2,30.00,WNW,300,0.0,0.0,76,0.00,,---,0.00,VWS V14.01,2013-01-23 14:22:00,
2013-01-23 06:27:00,32.2,24.9,30.00,WNW,301,0.0,0.0,74,0.00,,---,0.00,VWS V14.01,2013-01-23 14:27:00,
2013-01-23 06:30:00,30.4,25.6,29.99,SSE,153,0.0,0.0,82,0.00,,---,0.00,VWS V14.01,2013-01-23 14:30:00,
2013-01-23 06:32:00,32.5,25.1,30.00,WNW,301,0.0,0.0,74,0.00,,---,0.00,VWS V14.01,2013-01-23 14:32:00,
2013-01-23 06:37:00,32.2,25.5,29.99,WNW,300,0.0,0.0,76,0.00,,---,0.00,VWS V14.01,2013-01-23 14:37:00,
2013-01-23 06:42:00,31.7,25.6,30.00,SSE,152,0.0,4.0,78,0.00,,---,0.00,VWS V14.01,2013-01-23 14:42:00,
2013-01-23 06:45:00,31.2,24.8,29.99,SSE,153,0.0,0.0,77,0.00,,---,0.00,VWS V14.01,2013-01-23 14:45:00,
2013-01-23 06:47:00,31.5,25.4,30.00,SSE,153,0.0,0.0,78,0.00,,---,0.00,VWS V14.01,2013-01-23 14:47:00,
2013-01-23 06:52:00,30.9,25.2,29.99,SSE,153,0.0,0.0,79,0.00,,---,0.00,VWS V14.01,2013-01-23 14:52:00,
2013-01-23 06:57:00,30.7,25.3,29.99,SSE,153,0.0,0.0,80,0.00,,---,0.00,VWS V14.01,2013-01-23 14:57:00,
2013-01-23 07:00:00,31.0,25.6,29.99,WNW,286,0.0,0.0,80,0.00,,---,0.00,VWS V14.01,2013-01-23 15:00:00,
2013-01-23 07:02:00,30.8,25.1,30.00,SSE,153,0.0,0.0,79,0.00,,---,0.00,VWS V14.01,2013-01-23 15:02:00,
2013-01-23 07:07:00,30.9,24.9,29.99,SSE,153,0.0,0.0,78,0.00,,---,0.00,VWS V14.01,2013-01-23 15:07:00,
2013-01-23 07:12:00,31.1,24.8,29.99,SSE,153,0.0,0.0,77,0.00,,---,0.00,VWS V14.01,2013-01-23 15:12:00,
2013-01-23 07:15:00,32.2,25.2,29.98,North,9,0.0,0.0,75,0.00,,---,0.00,VWS V14.01,2013-01-23 15:15:00,
2013-01-23 07:17:00,31.0,25.0,29.98,SSE,153,0.0,0.0,78,0.00,,---,0.00,VWS V14.01,2013-01-23 15:17:00,
2013-01-23 07:22:00,30.8,25.7,29.98,SSE,153,0.0,0.0,81,0.00,,---,0.00,VWS V14.01,2013-01-23 15:22:00,
2013-01-23 07:27:00,30.5,25.7,29.98,SSE,153,0.0,0.0,82,0.00,,---,0.00,VWS V14.01,2013-01-23 15:27:00,
2013-01-23 07:30:00,33.5,27.1,29.98,WNW,294,0.0,4.0,77,0.00,,---,0.00,VWS V14.01,2013-01-23 15:30:00,
2013-01-23 07:32:00,30.4,25.3,29.99,SSE,153,0.0,0.0,81,0.00,,---,0.00,VWS V14.01,2013-01-23 15:32:00,
2013-01-23 07:37:00,30.5,25.4,29.99,SSE,153,0.0,0.0,81,0.00,,---,0.00,VWS V14.01,2013-01-23 15:37:00,
2013-01-23 07:42:00,30.9,25.2,29.99,SSE,153,0.0,0.0,79,0.00,,---,0.00,VWS V14.01,2013-01-23 15:42:00,
2013-01-23 07:45:00,34.2,26.1,29.97,NNW,340,0.0,0.0,72,0.00,,---,0.00,VWS V14.01,2013-01-23 15:45:00,
2013-01-23 07:47:00,31.3,25.6,29.99,SSE,153,0.0,0.0,79,0.00,,---,0.00,VWS V14.01,2013-01-23 15:47:00,
2013-01-23 07:52:00,31.2,26.1,29.99,WSW,252,0.0,0.0,81,0.00,,---,0.00,VWS V14.01,2013-01-23 15:52:00,
2013-01-23 07:57:00,31.0,25.9,29.99,WNW,285,0.0,0.0,81,0.00,,---,0.00,VWS V14.01,2013-01-23 15:57:00,
2013-01-23 08:00:00,39.3,24.1,29.97,East,82,7.0,11.0,54,0.00,,---,0.00,VWS V14.01,2013-01-23 16:00:00,
2013-01-23 08:02:00,31.1,26.0,29.99,WNW,285,0.0,0.0,81,0.00,,---,0.00,VWS V14.01,2013-01-23 16:02:00,
2013-01-23 08:07:00,31.4,26.0,29.98,WNW,284,0.0,0.0,80,0.00,,---,0.00,VWS V14.01,2013-01-23 16:07:00,
2013-01-23 08:12:00,31.9,25.5,29.98,WNW,286,0.0,0.0,77,0.00,,---,0.00,VWS V14.01,2013-01-23 16:12:00,
2013-01-23 08:15:00,40.9,24.2,29.97,East,80,8.0,14.0,51,0.00,,---,0.00,VWS V14.01,2013-01-23 16:15:00,
2013-01-23 08:17:00,32.6,25.9,29.98,North,9,0.0,0.0,76,0.00,,---,0.00,VWS V14.01,2013-01-23 16:17:00,
2013-01-23 08:22:00,33.4,25.0,29.97,North,10,0.0,4.0,71,0.00,,---,0.00,VWS V14.01,2013-01-23 16:22:00,
2013-01-23 08:27:00,33.8,27.0,29.97,WNW,294,0.0,4.0,76,0.00,,---,0.00,VWS V14.01,2013-01-23 16:27:00,
2013-01-23 08:30:00,41.2,23.0,29.96,East,84,10.0,13.0,48,0.00,,---,0.00,VWS V14.01,2013-01-23 16:30:00,
2013-01-23 08:32:00,33.3,26.6,29.97,WNW,294,0.0,0.0,76,0.00,,---,0.00,VWS V14.01,2013-01-23 16:32:00,
2013-01-23 08:37:00,33.4,26.0,29.97,WNW,294,0.0,0.0,74,0.00,,---,0.00,VWS V14.01,2013-01-23 16:37:00,
2013-01-23 08:42:00,33.9,25.5,29.97,NNW,333,0.0,0.0,71,0.00,,---,0.00,VWS V14.01,2013-01-23 16:42:00,
2013-01-23 08:45:00,40.7,23.5,29.96,East,88,6.0,12.0,50,0.00,,---,0.00,VWS V14.01,2013-01-23 16:45:00,
2013-01-23 08:47:00,34.4,26.0,29.97,NNW,340,0.0,0.0,71,0.00,,---,0.00,VWS V14.01,2013-01-23 16:47:00,
2013-01-23 08:52:00,35.3,24.4,29.97,ESE,107,0.0,4.0,64,0.00,,---,0.00,VWS V14.01,2013-01-23 16:52:00,
2013-01-23 08:57:00,38.1,24.2,29.97,ENE,73,5.0,6.0,57,0.00,,---,0.00,VWS V14.01,2013-01-23 16:57:00,
2013-01-23 09:00:00,41.3,23.6,29.95,East,85,7.0,12.0,49,0.00,,---,0.00,VWS V14.01,2013-01-23 17:00:00,
2013-01-23 09:02:00,39.7,24.0,29.97,East,88,8.0,8.0,53,0.00,,---,0.00,VWS V14.01,2013-01-23 17:02:00,
2013-01-23 09:07:00,39.6,24.8,29.97,East,92,7.0,9.0,55,0.00,,---,0.00,VWS V14.01,2013-01-23 17:07:00,
2013-01-23 09:12:00,40.4,24.2,29.97,ENE,75,12.0,14.0,52,0.00,,---,0.00,VWS V14.01,2013-01-23 17:12:00,
2013-01-23 09:15:00,43.4,22.4,29.96,ENE,74,10.0,14.0,43,0.00,,---,0.00,VWS V14.01,2013-01-23 17:15:00,
2013-01-23 09:17:00,41.0,23.8,29.97,East,82,10.0,11.0,50,0.00,,---,0.00,VWS V14.01,2013-01-23 17:17:00,
2013-01-23 09:22:00,41.0,24.3,29.96,East,90,8.0,12.0,51,0.00,,---,0.00,VWS V14.01,2013-01-23 17:22:00,
2013-01-23 09:27:00,40.9,22.7,29.96,East,88,10.0,13.0,48,0.00,,---,0.00,VWS V14.01,2013-01-23 17:27:00,
2013-01-23 09:30:00,44.3,20.9,29.96,NE,54,6.0,14.0,39,0.00,,---,0.00,VWS V14.01,2013-01-23 17:30:00,
2013-01-23 09:32:00,41.0,24.7,29.96,East,98,11.0,11.0,52,0.00,,---,0.00,VWS V14.01,2013-01-23 17:32:00,
2013-01-23 09:37:00,40.2,24.0,29.96,ESE,104,11.0,12.0,52,0.00,,---,0.00,VWS V14.01,2013-01-23 17:37:00,
2013-01-23 09:42:00,40.6,23.4,29.96,East,95,9.0,12.0,50,0.00,,---,0.00,VWS V14.01,2013-01-23 17:42:00,
2013-01-23 09:45:00,44.8,21.4,29.96,NNE,28,5.0,10.0,39,0.00,,---,0.00,VWS V14.01,2013-01-23 17:45:00,
2013-01-23 09:47:00,40.6,23.9,29.96,East,94,8.0,8.0,51,0.00,,---,0.00,VWS V14.01,2013-01-23 17:47:00,
2013-01-23 09:52:00,40.7,23.0,29.95,East,84,8.0,10.0,49,0.00,,---,0.00,VWS V14.01,2013-01-23 17:52:00,
2013-01-23 09:57:00,41.2,23.0,29.96,East,84,7.0,12.0,48,0.00,,---,0.00,VWS V14.01,2013-01-23 17:57:00,
2013-01-23 10:00:00,44.1,23.0,29.96,NE,46,0.0,7.0,43,0.00,,---,0.00,VWS V14.01,2013-01-23 18:00:00,
2013-01-23 10:02:00,41.3,22.1,29.95,ENE,78,7.0,8.0,46,0.00,,---,0.00,VWS V14.01,2013-01-23 18:02:00,
2013-01-23 10:07:00,42.1,21.8,29.95,East,80,10.0,11.0,44,0.00,,---,0.00,VWS V14.01,2013-01-23 18:07:00,
2013-01-23 10:12:00,43.0,22.6,29.96,ENE,65,11.0,14.0,44,0.00,,---,0.00,VWS V14.01,2013-01-23 18:12:00,
2013-01-23 10:15:00,44.8,23.1,29.95,East,90,0.0,11.0,42,0.00,,---,0.00,VWS V14.01,2013-01-23 18:15:00,
2013-01-23 10:17:00,43.4,22.4,29.96,ENE,67,12.0,13.0,43,0.00,,---,0.00,VWS V14.01,2013-01-23 18:17:00,
2013-01-23 10:22:00,43.7,22.7,29.96,ENE,66,8.0,14.0,43,0.00,,---,0.00,VWS V14.01,2013-01-23 18:22:00,
2013-01-23 10:27:00,43.9,21.7,29.96,NE,53,6.0,14.0,41,0.00,,---,0.00,VWS V14.01,2013-01-23 18:27:00,
2013-01-23 10:30:00,46.8,23.2,29.93,East,96,18.0,24.0,39,0.00,,---,0.00,VWS V14.01,2013-01-23 18:30:00,
2013-01-23 10:32:00,44.2,23.1,29.96,NE,55,6.0,7.0,43,0.00,,---,0.00,VWS V14.01,2013-01-23 18:32:00,
2013-01-23 10:37:00,44.3,20.3,29.96,NE,56,7.0,10.0,38,0.00,,---,0.00,VWS V14.01,2013-01-23 18:37:00,
2013-01-23 10:42:00,44.7,21.9,29.96,NE,53,0.0,10.0,40,0.00,,---,0.00,VWS V14.01,2013-01-23 18:42:00,
2013-01-23 10:45:00,48.0,23.6,29.93,East,100,13.0,24.0,38,0.00,,---,0.00,VWS V14.01,2013-01-23 18:45:00,
2013-01-23 10:47:00,44.9,20.9,29.96,NE,42,2.0,7.0,38,0.00,,---,0.00,VWS V14.01,2013-01-23 18:47:00,
2013-01-23 10:52:00,44.4,22.2,29.96,NE,45,0.0,7.0,41,0.00,,---,0.00,VWS V14.01,2013-01-23 18:52:00,
2013-01-23 10:57:00,44.3,22.1,29.95,NE,45,0.0,7.0,41,0.00,,---,0.00,VWS V14.01,2013-01-23 18:57:00,
2013-01-23 11:00:00,48.3,24.5,29.91,East,88,10.0,22.0,39,0.00,,---,0.00,VWS V14.01,2013-01-23 19:00:00,
2013-01-23 11:02:00,44.2,23.1,29.95,East,101,1.0,8.0,43,0.00,,---,0.00,VWS V14.01,2013-01-23 19:02:00,
2013-01-23 11:07:00,45.0,22.7,29.95,East,91,6.0,11.0,41,0.00,,---,0.00,VWS V14.01,2013-01-23 19:07:00,
2013-01-23 11:12:00,44.8,22.5,29.95,East,91,4.0,11.0,41,0.00,,---,0.00,VWS V14.01,2013-01-23 19:12:00,
2013-01-23 11:15:00,48.5,24.7,29.91,East,83,8.0,16.0,39,0.00,,---,0.00,VWS V14.01,2013-01-23 19:15:00,
2013-01-23 11:17:00,44.8,22.5,29.94,East,92,8.0,8.0,41,0.00,,---,0.00,VWS V14.01,2013-01-23 19:17:00,
2013-01-23 11:22:00,45.9,23.0,29.93,East,91,16.0,21.0,40,0.00,,---,0.00,VWS V14.01,2013-01-23 19:22:00,
2013-01-23 11:27:00,46.6,23.0,29.94,East,96,19.0,24.0,39,0.00,,---,0.00,VWS V14.01,2013-01-23 19:27:00,
2013-01-23 11:30:00,48.9,25.7,29.90,East,81,12.0,14.0,40,0.00,,---,0.00,VWS V14.01,2013-01-23 19:30:00,
2013-01-23 11:32:00,46.9,23.3,29.93,East,91,14.0,23.0,39,0.00,,---,0.00,VWS V14.01,2013-01-23 19:32:00,
2013-01-23 11:37:00,47.4,23.1,29.93,ESE,109,13.0,23.0,38,0.00,,---,0.00,VWS V14.01,2013-01-23 19:37:00,
2013-01-23 11:42:00,47.8,22.8,29.93,East,92,16.0,24.0,37,0.00,,---,0.00,VWS V14.01,2013-01-23 19:42:00,
2013-01-23 11:45:00,49.4,24.9,29.90,East,80,11.0,18.0,38,0.00,,---,0.00,VWS V14.01,2013-01-23 19:45:00,
2013-01-23 11:47:00,47.9,22.9,29.92,East,90,15.0,21.0,37,0.00,,---,0.00,VWS V14.01,2013-01-23 19:47:00,
2013-01-23 11:52:00,48.1,23.7,29.92,East,101,16.0,21.0,38,0.00,,---,0.00,VWS V14.01,2013-01-23 19:52:00,
2013-01-23 11:57:00,48.4,24.0,29.92,East,90,14.0,22.0,38,0.00,,---,0.00,VWS V14.01,2013-01-23 19:57:00,
2013-01-23 12:00:00,49.5,26.2,29.90,East,91,7.0,14.0,40,0.00,,---,0.00,VWS V14.01,2013-01-23 20:00:00,
2013-01-23 12:02:00,48.3,23.3,29.92,East,84,8.0,15.0,37,0.00,,---,0.00,VWS V14.01,2013-01-23 20:02:00,
2013-01-23 12:07:00,48.6,24.8,29.91,East,89,5.0,16.0,39,0.00,,---,0.00,VWS V14.01,2013-01-23 20:07:00,
2013-01-23 12:12:00,48.7,24.9,29.91,East,84,7.0,16.0,39,0.00,,---,0.00,VWS V14.01,2013-01-23 20:12:00,
2013-01-23 12:15:00,50.1,25.5,29.89,ESE,120,6.0,13.0,38,0.00,,---,0.00,VWS V14.01,2013-01-23 20:15:00,
2013-01-23 12:17:00,48.4,24.6,29.91,East,82,8.0,11.0,39,0.00,,---,0.00,VWS V14.01,2013-01-23 20:17:00,
2013-01-23 12:22:00,48.7,24.9,29.91,East,80,11.0,14.0,39,0.00,,---,0.00,VWS V14.01,2013-01-23 20:22:00,
2013-01-23 12:27:00,48.9,24.4,29.91,East,84,11.0,14.0,38,0.00,,---,0.00,VWS V14.01,2013-01-23 20:27:00,
2013-01-23 12:30:00,50.3,26.3,29.89,ESE,109,8.0,18.0,39,0.00,,---,0.00,VWS V14.01,2013-01-23 20:30:00,
2013-01-23 12:32:00,48.8,25.0,29.90,East,90,13.0,18.0,39,0.00,,---,0.00,VWS V14.01,2013-01-23 20:32:00,
2013-01-23 12:37:00,48.7,25.5,29.90,East,90,9.0,18.0,40,0.00,,---,0.00,VWS V14.01,2013-01-23 20:37:00,
2013-01-23 12:42:00,49.1,25.8,29.90,East,80,12.0,18.0,40,0.00,,---,0.00,VWS V14.01,2013-01-23 20:42:00,
2013-01-23 12:45:00,50.0,27.2,29.89,ESE,117,6.0,14.0,41,0.00,,---,0.00,VWS V14.01,2013-01-23 20:45:00,
2013-01-23 12:47:00,49.2,25.9,29.90,ENE,78,10.0,12.0,40,0.00,,---,0.00,VWS V14.01,2013-01-23 20:47:00,
2013-01-23 12:52:00,49.2,25.3,29.90,ENE,74,11.0,13.0,39,0.00,,---,0.00,VWS V14.01,2013-01-23 20:52:00,
2013-01-23 12:57:00,49.5,25.6,29.89,ENE,78,8.0,14.0,39,0.00,,---,0.00,VWS V14.01,2013-01-23 20:57:00,
2013-01-23 13:00:00,49.9,26.6,29.89,ESE,106,7.0,13.0,40,0.00,,---,0.00,VWS V14.01,2013-01-23 21:00:00,
2013-01-23 13:02:00,49.4,26.7,29.90,East,84,5.0,7.0,41,0.00,,---,0.00,VWS V14.01,2013-01-23 21:02:00,
2013-01-23 13:07:00,49.8,27.1,29.89,East,93,13.0,13.0,41,0.00,,---,0.00,VWS V14.01,2013-01-23 21:07:00,
2013-01-23 13:12:00,49.9,26.6,29.89,ESE,105,8.0,13.0,40,0.00,,---,0.00,VWS V14.01,2013-01-23 21:12:00,
2013-01-23 13:15:00,50.8,26.8,29.89,ESE,121,7.0,11.0,39,0.00,,---,0.00,VWS V14.01,2013-01-23 21:15:00,
2013-01-23 13:17:00,50.2,26.2,29.89,East,98,11.0,11.0,39,0.00,,---,0.00,VWS V14.01,2013-01-23 21:17:00,
2013-01-23 13:22:00,50.4,25.8,29.89,ESE,102,14.0,18.0,38,0.00,,---,0.00,VWS V14.01,2013-01-23 21:22:00,
2013-01-23 13:27:00,50.5,25.2,29.90,ESE,114,11.0,18.0,37,0.00,,---,0.00,VWS V14.01,2013-01-23 21:27:00,
2013-01-23 13:30:00,51.1,27.0,29.89,ESE,116,5.0,9.0,39,0.00,,---,0.00,VWS V14.01,2013-01-23 21:30:00,
2013-01-23 13:32:00,50.2,26.2,29.89,ESE,107,7.0,11.0,39,0.00,,---,0.00,VWS V14.01,2013-01-23 21:32:00,
2013-01-23 13:37:00,50.1,26.7,29.89,ESE,108,11.0,14.0,40,0.00,,---,0.00,VWS V14.01,2013-01-23 21:37:00,
2013-01-23 13:42:00,50.1,27.3,29.89,ESE,115,13.0,14.0,41,0.00,,---,0.00,VWS V14.01,2013-01-23 21:42:00,
2013-01-23 13:45:00,50.8,27.4,29.89,ESE,111,1.0,7.0,40,0.00,,---,0.00,VWS V14.01,2013-01-23 21:45:00,
2013-01-23 13:47:00,50.0,26.0,29.89,ESE,111,12.0,12.0,39,0.00,,---,0.00,VWS V14.01,2013-01-23 21:47:00,
2013-01-23 13:52:00,50.2,26.2,29.89,ESE,106,8.0,13.0,39,0.00,,---,0.00,VWS V14.01,2013-01-23 21:52:00,
2013-01-23 13:57:00,49.8,27.1,29.89,ESE,117,11.0,13.0,41,0.00,,---,0.00,VWS V14.01,2013-01-23 21:57:00,
2013-01-23 14:00:00,49.7,26.4,29.90,ESE,123,0.0,7.0,40,0.00,,---,0.00,VWS V14.01,2013-01-23 22:00:00,
2013-01-23 14:02:00,49.9,26.0,29.89,ESE,107,8.0,9.0,39,0.00,,---,0.00,VWS V14.01,2013-01-23 22:02:00,
2013-01-23 14:07:00,50.1,26.7,29.89,ESE,119,7.0,11.0,40,0.00,,---,0.00,VWS V14.01,2013-01-23 22:07:00,
2013-01-23 14:12:00,50.5,27.7,29.89,ESE,119,7.0,11.0,41,0.00,,---,0.00,VWS V14.01,2013-01-23 22:12:00,
2013-01-23 14:15:00,49.4,26.7,29.90,ESE,122,0.0,1.0,41,0.00,,---,0.00,VWS V14.01,2013-01-23 22:15:00,
2013-01-23 14:17:00,50.9,26.8,29.89,ESE,117,6.0,9.0,39,0.00,,---,0.00,VWS V14.01,2013-01-23 22:17:00,
2013-01-23 14:22:00,50.9,27.5,29.89,ESE,119,5.0,9.0,40,0.00,,---,0.00,VWS V14.01,2013-01-23 22:22:00,
2013-01-23 14:27:00,51.0,26.9,29.89,ESE,116,7.0,9.0,39,0.00,,---,0.00,VWS V14.01,2013-01-23 22:27:00,
2013-01-23 14:30:00,48.9,27.4,29.90,ESE,123,0.0,0.0,43,0.00,,---,0.00,VWS V14.01,2013-01-23 22:30:00,
2013-01-23 14:32:00,51.1,26.4,29.89,ESE,115,4.0,5.0,38,0.00,,---,0.00,VWS V14.01,2013-01-23 22:32:00,
2013-01-23 14:37:00,51.2,25.8,29.89,ESE,110,5.0,7.0,37,0.00,,---,0.00,VWS V14.01,2013-01-23 22:37:00,
2013-01-23 14:42:00,51.1,26.4,29.89,ESE,109,2.0,7.0,38,0.00,,---,0.00,VWS V14.01,2013-01-23 22:42:00,
2013-01-23 14:45:00,46.7,28.1,29.90,ESE,123,0.0,0.0,48,0.00,,---,0.00,VWS V14.01,2013-01-23 22:45:00,
2013-01-23 14:47:00,50.7,27.9,29.89,ESE,111,0.0,1.0,41,0.00,,---,0.00,VWS V14.01,2013-01-23 22:47:00,
2013-01-23 14:52:00,49.9,27.7,29.90,ESE,114,0.0,1.0,42,0.00,,---,0.00,VWS V14.01,2013-01-23 22:52:00,
2013-01-23 14:57:00,49.7,27.0,29.90,ESE,119,0.0,1.0,41,0.00,,---,0.00,VWS V14.01,2013-01-23 22:57:00,
2013-01-23 15:00:00,46.1,27.5,29.90,SE,128,0.0,0.0,48,0.00,,---,0.00,VWS V14.01,2013-01-23 23:00:00,
2013-01-23 15:01:00,49.7,27.0,29.90,ESE,122,0.0,0.0,41,0.00,,---,0.00,VWS V14.01,2013-01-23 23:01:00,
2013-01-23 15:06:00,49.7,27.0,29.90,ESE,123,0.0,0.0,41,0.00,,---,0.00,VWS V14.01,2013-01-23 23:06:00,
2013-01-23 15:11:00,49.5,26.8,29.90,ESE,123,0.0,1.0,41,0.00,,---,0.00,VWS V14.01,2013-01-23 23:11:00,
2013-01-23 15:15:00,47.0,26.8,29.91,SE,128,0.0,0.0,45,0.00,,---,0.00,VWS V14.01,2013-01-23 23:15:00,
2013-01-23 15:16:00,49.4,26.1,29.90,ESE,123,0.0,0.0,40,0.00,,---,0.00,VWS V14.01,2013-01-23 23:16:00,
2013-01-23 15:21:00,49.5,26.8,29.91,ESE,123,0.0,0.0,41,0.00,,---,0.00,VWS V14.01,2013-01-23 23:21:00,
2013-01-23 15:26:00,49.2,26.5,29.90,ESE,123,0.0,0.0,41,0.00,,---,0.00,VWS V14.01,2013-01-23 23:26:00,
2013-01-23 15:30:00,48.6,32.7,29.90,SSW,194,12.0,12.0,54,0.00,,---,0.00,VWS V14.01,2013-01-23 23:30:00,
2013-01-23 15:31:00,48.8,29.0,29.89,ESE,123,0.0,0.0,46,0.00,,---,0.00,VWS V14.01,2013-01-23 23:31:00,
2013-01-23 15:36:00,47.5,28.8,29.90,ESE,123,0.0,0.0,48,0.00,,---,0.00,VWS V14.01,2013-01-23 23:36:00,
2013-01-23 15:41:00,46.6,27.5,29.90,ESE,123,0.0,0.0,47,0.00,,---,0.00,VWS V14.01,2013-01-23 23:41:00,
2013-01-23 15:45:00,50.0,34.9,29.90,SSW,205,12.0,26.0,56,0.00,,---,0.00,VWS V14.01,2013-01-23 23:45:00,
2013-01-23 15:46:00,46.6,28.5,29.90,ESE,123,0.0,0.0,49,0.00,,---,0.00,VWS V14.01,2013-01-23 23:46:00,
2013-01-23 15:51:00,46.0,28.4,29.90,SE,128,0.0,0.0,50,0.00,,---,0.00,VWS V14.01,2013-01-23 23:51:00,
2013-01-23 15:56:00,46.0,27.9,29.90,SE,128,0.0,0.0,49,0.00,,---,0.00,VWS V14.01,2013-01-23 23:56:00,
2013-01-23 16:00:00,49.5,34.9,29.91,West,271,4.0,16.0,57,0.00,,---,0.00,VWS V14.01,2013-01-24 00:00:00,
2013-01-23 16:01:00,46.2,27.6,29.90,SE,128,0.0,0.0,48,0.00,,---,0.00,VWS V14.01,2013-01-24 00:01:00,
2013-01-23 16:06:00,46.7,27.0,29.91,SE,128,0.0,0.0,46,0.00,,---,0.00,VWS V14.01,2013-01-24 00:06:00,
2013-01-23 16:11:00,46.7,28.1,29.91,SE,128,0.0,0.0,48,0.00,,---,0.00,VWS V14.01,2013-01-24 00:11:00,
2013-01-23 16:15:00,48.9,34.8,29.91,SSW,209,1.0,12.0,58,0.00,,---,0.00,VWS V14.01,2013-01-24 00:15:00,
2013-01-23 16:16:00,47.4,27.7,29.91,SE,128,2.0,5.0,46,0.00,,---,0.00,VWS V14.01,2013-01-24 00:16:00,
2013-01-23 16:21:00,48.5,28.7,29.90,SE,128,0.0,5.0,46,0.00,,---,0.00,VWS V14.01,2013-01-24 00:21:00,
2013-01-23 16:26:00,48.7,28.9,29.90,SSE,159,0.0,7.0,46,0.00,,---,0.00,VWS V14.01,2013-01-24 00:26:00,
2013-01-23 16:30:00,48.1,34.9,29.92,SSE,166,8.0,13.0,60,0.00,,---,0.00,VWS V14.01,2013-01-24 00:30:00,
2013-01-23 16:31:00,49.0,33.5,29.90,SSW,199,9.0,16.0,55,0.00,,---,0.00,VWS V14.01,2013-01-24 00:31:00,
2013-01-23 16:36:00,49.6,34.6,29.89,SSE,161,18.0,20.0,56,0.00,,---,0.00,VWS V14.01,2013-01-24 00:36:00,
2013-01-23 16:41:00,49.9,34.8,29.90,South,177,18.0,21.0,56,0.00,,---,0.00,VWS V14.01,2013-01-24 00:41:00,
2013-01-23 16:45:00,47.6,35.2,29.92,South,183,10.0,15.0,62,0.00,,---,0.00,VWS V14.01,2013-01-24 00:45:00,
2013-01-23 16:46:00,50.0,34.9,29.90,South,183,12.0,16.0,56,0.00,,---,0.00,VWS V14.01,2013-01-24 00:46:00,
2013-01-23 16:51:00,49.7,35.1,29.91,SSW,200,8.0,16.0,57,0.00,,---,0.00,VWS V14.01,2013-01-24 00:51:00,
2013-01-23 16:56:00,49.6,35.0,29.91,SSW,192,8.0,16.0,57,0.00,,---,0.00,VWS V14.01,2013-01-24 00:56:00,
2013-01-23 17:00:00,48.7,35.5,29.93,South,175,12.0,19.0,60,0.00,,---,0.00,VWS V14.01,2013-01-24 01:00:00,
2013-01-23 17:01:00,49.4,34.8,29.91,South,172,5.0,8.0,57,0.00,,---,0.00,VWS V14.01,2013-01-24 01:01:00,
2013-01-23 17:06:00,49.3,34.7,29.92,SSW,207,3.0,11.0,57,0.00,,---,0.00,VWS V14.01,2013-01-24 01:06:00,
2013-01-23 17:11:00,49.0,34.9,29.91,South,184,5.0,12.0,58,0.00,,---,0.00,VWS V14.01,2013-01-24 01:11:00,
2013-01-23 17:15:00,47.3,35.4,29.94,SW,219,2.0,18.0,63,0.00,,---,0.00,VWS V14.01,2013-01-24 01:15:00,
2013-01-23 17:16:00,48.8,34.7,29.91,SSW,210,3.0,10.0,58,0.00,,---,0.00,VWS V14.01,2013-01-24 01:16:00,
2013-01-23 17:21:00,48.5,34.8,29.91,SW,226,4.0,10.0,59,0.00,,---,0.00,VWS V14.01,2013-01-24 01:21:00,
2013-01-23 17:26:00,48.1,34.9,29.91,SW,217,5.0,11.0,60,0.00,,---,0.00,VWS V14.01,2013-01-24 01:26:00,
2013-01-23 17:30:00,44.9,35.0,29.95,WSW,244,5.0,11.0,68,0.00,,---,0.00,VWS V14.01,2013-01-24 01:30:00,
2013-01-23 17:31:00,48.1,34.9,29.92,South,183,0.0,10.0,60,0.00,,---,0.00,VWS V14.01,2013-01-24 01:31:00,
2013-01-23 17:36:00,47.6,34.8,29.92,South,191,7.0,12.0,61,0.00,,---,0.00,VWS V14.01,2013-01-24 01:36:00,
2013-01-23 17:41:00,47.5,35.1,29.92,South,188,9.0,15.0,62,0.00,,---,0.00,VWS V14.01,2013-01-24 01:41:00,
2013-01-23 17:45:00,42.3,34.6,29.97,SW,232,8.0,10.0,74,0.00,,---,0.00,VWS V14.01,2013-01-24 01:45:00,
2013-01-23 17:46:00,47.7,35.3,29.92,South,186,10.0,17.0,62,0.00,,---,0.00,VWS V14.01,2013-01-24 01:46:00,
2013-01-23 17:51:00,48.5,35.3,29.92,SSE,167,11.0,19.0,60,0.00,,---,0.00,VWS V14.01,2013-01-24 01:51:00,
2013-01-23 17:56:00,48.6,35.4,29.93,South,184,10.0,19.0,60,0.00,,---,0.00,VWS V14.01,2013-01-24 01:56:00,
2013-01-23 18:00:00,40.1,34.4,29.98,WSW,240,14.0,15.0,80,0.00,,---,0.00,VWS V14.01,2013-01-24 02:00:00,
2013-01-23 18:01:00,48.6,35.4,29.93,South,187,18.0,18.0,60,0.00,,---,0.00,VWS V14.01,2013-01-24 02:01:00,
2013-01-23 18:06:00,48.3,35.5,29.93,SSW,202,9.0,18.0,61,0.00,,---,0.00,VWS V14.01,2013-01-24 02:06:00,
2013-01-23 18:11:00,47.7,35.3,29.94,SW,227,1.0,18.0,62,0.00,,---,0.00,VWS V14.01,2013-01-24 02:11:00,
2013-01-23 18:15:00,39.4,35.0,29.99,SW,229,7.0,16.0,84,0.00,,---,0.00,VWS V14.01,2013-01-24 02:15:00,
2013-01-23 18:16:00,47.0,35.1,29.94,SW,225,3.0,8.0,63,0.00,,---,0.00,VWS V14.01,2013-01-24 02:16:00,
2013-01-23 18:21:00,45.9,34.8,29.94,WSW,244,6.0,11.0,65,0.00,,---,0.00,VWS V14.01,2013-01-24 02:21:00,
2013-01-23 18:26:00,45.3,35.0,29.94,SW,217,0.0,11.0,67,0.00,,---,0.00,VWS V14.01,2013-01-24 02:26:00,
2013-01-23 18:30:00,38.9,35.1,30.00,SW,218,2.0,8.0,86,0.00,,---,0.00,VWS V14.01,2013-01-24 02:30:00,
2013-01-23 18:31:00,44.6,34.7,29.95,WSW,239,0.0,10.0,68,0.00,,---,0.00,VWS V14.01,2013-01-24 02:31:00,
2013-01-23 18:36:00,43.8,34.7,29.96,SW,236,7.0,10.0,70,0.00,,---,0.00,VWS V14.01,2013-01-24 02:36:00,
2013-01-23 18:41:00,42.8,34.4,29.97,SW,214,7.0,10.0,72,0.00,,---,0.00,VWS V14.01,2013-01-24 02:41:00,
2013-01-23 18:45:00,38.9,35.7,30.01,WSW,250,0.0,3.0,88,0.00,,---,0.00,VWS V14.01,2013-01-24 02:45:00,
2013-01-23 18:46:00,42.1,34.8,29.97,WSW,238,7.0,10.0,75,0.00,,---,0.00,VWS V14.01,2013-01-24 02:46:00,
2013-01-23 18:51:00,41.6,34.9,29.97,SW,222,8.0,15.0,77,0.00,,---,0.00,VWS V14.01,2013-01-24 02:51:00,
2013-01-23 18:56:00,40.9,34.9,29.98,WSW,244,7.0,15.0,79,0.00,,---,0.00,VWS V14.01,2013-01-24 02:56:00,
2013-01-23 19:00:00,39.4,35.9,30.02,SW,231,0.0,6.0,87,0.00,,---,0.00,VWS V14.01,2013-01-24 03:00:00,
2013-01-23 19:01:00,40.1,34.8,29.98,SW,235,12.0,14.0,81,0.00,,---,0.00,VWS V14.01,2013-01-24 03:01:00,
2013-01-23 19:06:00,40.0,35.3,29.99,WSW,247,10.0,16.0,83,0.00,,---,0.00,VWS V14.01,2013-01-24 03:06:00,
2013-01-23 19:11:00,39.7,35.0,29.99,SW,217,0.0,16.0,83,0.00,,---,0.00,VWS V14.01,2013-01-24 03:11:00,
2013-01-23 19:15:00,40.1,36.3,30.03,SW,229,0.0,3.0,86,0.00,,---,0.00,VWS V14.01,2013-01-24 03:15:00,
2013-01-23 19:16:00,39.5,35.4,29.99,WSW,243,6.0,8.0,85,0.00,,---,0.00,VWS V14.01,2013-01-24 03:16:00,
2013-01-23 19:21:00,39.5,35.4,29.99,WSW,240,3.0,8.0,85,0.00,,---,0.00,VWS V14.01,2013-01-24 03:21:00,
2013-01-23 19:26:00,39.3,35.5,29.99,WSW,244,3.0,8.0,86,0.00,,---,0.00,VWS V14.01,2013-01-24 03:26:00,
2013-01-23 19:30:00,39.4,35.3,30.03,ESE,104,0.0,2.0,85,0.00,,---,0.00,VWS V14.01,2013-01-24 03:30:00,
2013-01-23 19:31:00,38.9,35.4,30.00,SW,227,2.0,3.0,87,0.00,,---,0.00,VWS V14.01,2013-01-24 03:31:00,
2013-01-23 19:36:00,38.6,35.4,30.00,WSW,238,0.0,3.0,88,0.00,,---,0.00,VWS V14.01,2013-01-24 03:36:00,
2013-01-23 19:41:00,38.7,35.5,30.01,SW,234,0.0,3.0,88,0.00,,---,0.00,VWS V14.01,2013-01-24 03:41:00,
2013-01-23 19:45:00,39.6,36.1,30.04,ESE,103,2.0,4.0,87,0.00,,---,0.00,VWS V14.01,2013-01-24 03:45:00,
2013-01-23 19:46:00,39.0,35.8,30.01,WSW,254,0.0,0.0,88,0.00,,---,0.00,VWS V14.01,2013-01-24 03:46:00,
2013-01-23 19:51:00,39.1,35.6,30.01,South,171,5.0,6.0,87,0.00,,---,0.00,VWS V14.01,2013-01-24 03:51:00,
2013-01-23 19:56:00,39.2,36.0,30.02,SW,215,0.0,6.0,88,0.00,,---,0.00,VWS V14.01,2013-01-24 03:56:00,
2013-01-23 20:00:00,38.3,34.8,30.05,ENE,61,3.0,5.0,87,0.00,,---,0.00,VWS V14.01,2013-01-24 04:00:00,
2013-01-23 20:01:00,39.4,35.9,30.02,SW,222,0.0,0.0,87,0.00,,---,0.00,VWS V14.01,2013-01-24 04:01:00,
2013-01-23 20:06:00,39.5,36.0,30.02,SW,224,0.0,0.0,87,0.00,,---,0.00,VWS V14.01,2013-01-24 04:06:00,
2013-01-23 20:11:00,39.8,36.2,30.02,SW,225,0.0,0.0,87,0.00,,---,0.00,VWS V14.01,2013-01-24 04:11:00,
2013-01-23 20:15:00,38.2,34.7,30.05,ENE,63,2.0,5.0,87,0.00,,---,0.00,VWS V14.01,2013-01-24 04:15:00,
2013-01-23 20:16:00,40.2,36.3,30.03,SW,231,0.0,0.0,86,0.00,,---,0.00,VWS V14.01,2013-01-24 04:16:00,
2013-01-23 20:21:00,40.4,36.3,30.03,SW,232,0.0,0.0,85,0.00,,---,0.00,VWS V14.01,2013-01-24 04:21:00,
2013-01-23 20:26:00,40.1,36.0,30.03,ESE,103,2.0,2.0,85,0.00,,---,0.00,VWS V14.01,2013-01-24 04:26:00,
2013-01-23 20:30:00,38.2,35.0,30.05,NE,38,1.0,3.0,88,0.00,,---,0.00,VWS V14.01,2013-01-24 04:30:00,
2013-01-23 20:31:00,39.3,35.5,30.03,ESE,103,0.0,0.0,86,0.00,,---,0.00,VWS V14.01,2013-01-24 04:31:00,
2013-01-23 20:36:00,39.1,35.6,30.03,ESE,103,0.0,0.0,87,0.00,,---,0.00,VWS V14.01,2013-01-24 04:36:00,
2013-01-23 20:41:00,39.4,35.9,30.04,ESE,103,1.0,1.0,87,0.00,,---,0.00,VWS V14.01,2013-01-24 04:41:00,
2013-01-23 20:45:00,38.2,35.0,30.07,NE,38,0.0,1.0,88,0.00,,---,0.00,VWS V14.01,2013-01-24 04:45:00,
2013-01-23 20:46:00,39.6,36.1,30.04,ESE,103,4.0,5.0,87,0.00,,---,0.00,VWS V14.01,2013-01-24 04:46:00,
2013-01-23 20:51:00,39.5,35.7,30.04,ESE,103,4.0,5.0,86,0.00,,---,0.00,VWS V14.01,2013-01-24 04:51:00,
2013-01-23 20:56:00,39.0,35.2,30.04,East,85,3.0,5.0,86,0.00,,---,0.00,VWS V14.01,2013-01-24 04:56:00,
2013-01-23 21:00:00,38.4,34.9,30.05,ENE,60,2.0,5.0,87,0.00,,---,0.00,VWS V14.01,2013-01-24 05:00:00,
2013-01-23 21:02:00,38.2,35.0,30.05,ENE,62,4.0,4.0,88,0.00,,---,0.00,VWS V14.01,2013-01-24 05:02:00,
2013-01-23 21:03:00,38.3,35.1,30.05,ENE,63,3.0,4.0,88,0.00,,---,0.00,VWS V14.01,2013-01-24 05:03:00,
2013-01-23 21:08:00,38.5,35.3,30.05,ENE,63,3.0,5.0,88,0.00,,---,0.00,VWS V14.01,2013-01-24 05:08:00,
2013-01-23 21:13:00,38.4,35.2,30.05,ENE,63,1.0,5.0,88,0.00,,---,0.00,VWS V14.01,2013-01-24 05:13:00,
2013-01-23 21:15:00,38.2,34.7,30.08,NE,37,0.0,0.0,87,0.00,,---,0.00,VWS V14.01,2013-01-24 05:15:00,
2013-01-23 21:18:00,38.2,35.0,30.05,ENE,63,0.0,3.0,88,0.00,,---,0.00,VWS V14.01,2013-01-24 05:18:00,
2013-01-23 21:23:00,38.3,35.1,30.05,ENE,63,0.0,3.0,88,0.00,,---,0.00,VWS V14.01,2013-01-24 05:23:00,
2013-01-23 21:28:00,38.3,35.1,30.05,ENE,63,0.0,3.0,88,0.00,,---,0.00,VWS V14.01,2013-01-24 05:28:00,
2013-01-23 21:30:00,38.8,35.0,30.08,NW,320,0.0,2.0,86,0.00,,---,0.00,VWS V14.01,2013-01-24 05:30:00,
2013-01-23 21:33:00,38.1,34.9,30.06,NE,38,0.0,1.0,88,0.00,,---,0.00,VWS V14.01,2013-01-24 05:33:00,
2013-01-23 21:38:00,38.0,34.8,30.06,NE,38,0.0,1.0,88,0.00,,---,0.00,VWS V14.01,2013-01-24 05:38:00,
2013-01-23 21:43:00,38.2,35.0,30.07,NE,38,0.0,1.0,88,0.00,,---,0.00,VWS V14.01,2013-01-24 05:43:00,
2013-01-23 21:45:00,39.6,34.6,30.08,SW,216,0.0,3.0,82,0.00,,---,0.00,VWS V14.01,2013-01-24 05:45:00,
2013-01-23 21:48:00,38.2,35.0,30.07,NE,38,0.0,0.0,88,0.00,,---,0.00,VWS V14.01,2013-01-24 05:48:00,
2013-01-23 21:53:00,38.3,35.1,30.07,NE,38,0.0,0.0,88,0.00,,---,0.00,VWS V14.01,2013-01-24 05:53:00,
2013-01-23 21:58:00,39.0,35.5,30.08,NE,37,0.0,0.0,87,0.00,,---,0.00,VWS V14.01,2013-01-24 05:58:00,
2013-01-23 22:00:00,39.7,34.4,30.09,SW,215,0.0,0.0,81,0.00,,---,0.00,VWS V14.01,2013-01-24 06:00:00,
2013-01-23 22:03:00,38.9,35.1,30.08,NE,37,0.0,0.0,86,0.00,,---,0.00,VWS V14.01,2013-01-24 06:03:00,
2013-01-23 22:08:00,38.6,34.8,30.07,NE,38,0.0,0.0,86,0.00,,---,0.00,VWS V14.01,2013-01-24 06:08:00,
2013-01-23 22:13:00,38.3,34.8,30.08,NE,38,0.0,0.0,87,0.00,,---,0.00,VWS V14.01,2013-01-24 06:13:00,
2013-01-23 22:15:00,38.6,34.2,30.10,SE,124,0.0,0.0,84,0.00,,---,0.00,VWS V14.01,2013-01-24 06:15:00,
2013-01-23 22:18:00,38.2,34.7,30.08,NE,38,0.0,0.0,87,0.00,,---,0.00,VWS V14.01,2013-01-24 06:18:00,
2013-01-23 22:23:00,38.3,35.1,30.08,NE,38,0.0,0.0,88,0.00,,---,0.00,VWS V14.01,2013-01-24 06:23:00,
2013-01-23 22:28:00,38.6,34.8,30.08,NW,319,0.0,2.0,86,0.00,,---,0.00,VWS V14.01,2013-01-24 06:28:00,
2013-01-23 22:30:00,39.2,34.2,30.10,SE,125,0.0,0.0,82,0.00,,---,0.00,VWS V14.01,2013-01-24 06:30:00,
2013-01-23 22:33:00,39.0,34.9,30.08,NW,319,0.0,0.0,85,0.00,,---,0.00,VWS V14.01,2013-01-24 06:33:00,
2013-01-23 22:38:00,39.3,34.9,30.08,NW,320,0.0,0.0,84,0.00,,---,0.00,VWS V14.01,2013-01-24 06:38:00,
2013-01-23 22:43:00,39.5,34.8,30.08,WSW,241,2.0,3.0,83,0.00,,---,0.00,VWS V14.01,2013-01-24 06:43:00,
2013-01-23 22:45:00,39.9,34.2,30.11,NE,46,0.0,0.0,80,0.00,,---,0.00,VWS V14.01,2013-01-24 06:45:00,
2013-01-23 22:48:00,39.7,34.7,30.08,SW,216,0.0,0.0,82,0.00,,---,0.00,VWS V14.01,2013-01-24 06:48:00,
2013-01-23 22:53:00,39.8,34.5,30.09,SW,216,0.0,0.0,81,0.00,,---,0.00,VWS V14.01,2013-01-24 06:53:00,
2013-01-23 22:58:00,39.7,34.4,30.09,SW,215,0.0,0.0,81,0.00,,---,0.00,VWS V14.01,2013-01-24 06:58:00,
2013-01-23 23:00:00,37.9,33.8,30.12,NE,35,1.0,4.0,85,0.00,,---,0.00,VWS V14.01,2013-01-24 07:00:00,
2013-01-23 23:03:00,39.6,34.3,30.09,SSW,207,0.0,0.0,81,0.00,,---,0.00,VWS V14.01,2013-01-24 07:03:00,
2013-01-23 23:08:00,39.1,34.4,30.09,SSW,205,0.0,0.0,83,0.00,,---,0.00,VWS V14.01,2013-01-24 07:08:00,
2013-01-23 23:13:00,38.6,34.2,30.09,SE,124,0.0,0.0,84,0.00,,---,0.00,VWS V14.01,2013-01-24 07:13:00,
2013-01-23 23:15:00,37.6,33.8,30.12,NNE,28,0.0,2.0,86,0.00,,---,0.00,VWS V14.01,2013-01-24 07:15:00,
2013-01-23 23:18:00,38.8,34.4,30.10,SE,124,0.0,0.0,84,0.00,,---,0.00,VWS V14.01,2013-01-24 07:18:00,
2013-01-23 23:23:00,39.2,34.2,30.10,SE,124,0.0,0.0,82,0.00,,---,0.00,VWS V14.01,2013-01-24 07:23:00,
2013-01-23 23:28:00,39.1,34.1,30.10,SE,124,0.0,0.0,82,0.00,,---,0.00,VWS V14.01,2013-01-24 07:28:00,
2013-01-23 23:30:00,37.4,33.9,30.12,NNE,33,3.0,4.0,87,0.00,,---,0.00,VWS V14.01,2013-01-24 07:30:00,
2013-01-23 23:33:00,39.4,34.1,30.11,SE,125,0.0,0.0,81,0.00,,---,0.00,VWS V14.01,2013-01-24 07:33:00,
2013-01-23 23:38:00,39.6,34.3,30.11,SE,130,0.0,0.0,81,0.00,,---,0.00,VWS V14.01,2013-01-24 07:38:00,
2013-01-23 23:43:00,40.0,34.3,30.11,NE,55,0.0,0.0,80,0.00,,---,0.00,VWS V14.01,2013-01-24 07:43:00,
2013-01-23 23:45:00,37.0,33.5,30.12,NE,34,0.0,4.0,87,0.00,,---,0.00,VWS V14.01,2013-01-24 07:45:00,
2013-01-23 23:48:00,39.2,33.9,30.11,NE,56,2.0,4.0,81,0.00,,---,0.00,VWS V14.01,2013-01-24 07:48:00,
2013-01-23 23:53:00,38.3,33.9,30.12,NNE,17,1.0,4.0,84,0.00,,---,0.00,VWS V14.01,2013-01-24 07:53:00,
2013-01-23 23:58:00,38.0,33.6,30.12,NNE,19,0.0,4.0,84,0.00,,---,0.00,VWS V14.01,2013-01-24 07:58:00,